sensor_id;sensor_type;location;lat;lon;timestamp;P1;durP1;ratioP1;P2;durP2;ratioP2
37655;SDS011;23498;50.958;3.124;2022-12-18T00:00:47;68.53;;;28.38;;
37655;SDS011;23498;50.958;3.124;2022-12-18T00:03:13;69.63;;;29.42;;
37655;SDS011;23498;50.958;3.124;2022-12-18T00:05:49;68.40;;;29.15;;
37655;SDS011;23498;50.958;3.124;2022-12-18T00:08:16;72.82;;;28.77;;
37655;SDS011;23498;50.958;3.124;2022-12-18T00:10:42;73.93;;;31.45;;
37655;SDS011;23498;50.958;3.124;2022-12-18T00:13:08;74.30;;;30.13;;
37655;SDS011;23498;50.958;3.124;2022-12-18T00:15:35;72.75;;;29.27;;
37655;SDS011;23498;50.958;3.124;2022-12-18T00:18:01;78.82;;;31.02;;
37655;SDS011;23498;50.958;3.124;2022-12-18T00:20:27;72.50;;;29.83;;
37655;SDS011;23498;50.958;3.124;2022-12-18T00:22:53;81.13;;;33.22;;
37655;SDS011;23498;50.958;3.124;2022-12-18T00:25:19;75.95;;;30.05;;
37655;SDS011;23498;50.958;3.124;2022-12-18T00:27:45;68.22;;;30.02;;
37655;SDS011;23498;50.958;3.124;2022-12-18T00:30:11;81.47;;;31.60;;
37655;SDS011;23498;50.958;3.124;2022-12-18T00:32:37;78.13;;;32.70;;
37655;SDS011;23498;50.958;3.124;2022-12-18T00:35:04;79.45;;;33.90;;
37655;SDS011;23498;50.958;3.124;2022-12-18T00:37:30;84.45;;;32.50;;
37655;SDS011;23498;50.958;3.124;2022-12-18T00:39:56;87.82;;;33.83;;
37655;SDS011;23498;50.958;3.124;2022-12-18T00:42:22;81.15;;;32.75;;
37655;SDS011;23498;50.958;3.124;2022-12-18T00:45:06;82.85;;;33.25;;
37655;SDS011;23498;50.958;3.124;2022-12-18T00:47:32;80.45;;;32.92;;
37655;SDS011;23498;50.958;3.124;2022-12-18T00:49:58;76.43;;;33.67;;
37655;SDS011;23498;50.958;3.124;2022-12-18T00:52:24;74.65;;;32.03;;
37655;SDS011;23498;50.958;3.124;2022-12-18T00:54:50;72.63;;;32.97;;
37655;SDS011;23498;50.958;3.124;2022-12-18T00:57:16;77.63;;;30.75;;
37655;SDS011;23498;50.958;3.124;2022-12-18T00:59:42;80.20;;;32.63;;
37655;SDS011;23498;50.958;3.124;2022-12-18T01:02:08;74.40;;;30.67;;
37655;SDS011;23498;50.958;3.124;2022-12-18T01:04:34;72.97;;;31.63;;
37655;SDS011;23498;50.958;3.124;2022-12-18T01:07:00;72.55;;;30.08;;
37655;SDS011;23498;50.958;3.124;2022-12-18T01:09:26;73.53;;;30.13;;
37655;SDS011;23498;50.958;3.124;2022-12-18T01:11:52;78.93;;;34.00;;
37655;SDS011;23498;50.958;3.124;2022-12-18T01:14:18;79.10;;;33.53;;
37655;SDS011;23498;50.958;3.124;2022-12-18T01:16:44;74.03;;;34.20;;
37655;SDS011;23498;50.958;3.124;2022-12-18T01:19:11;69.45;;;29.42;;
37655;SDS011;23498;50.958;3.124;2022-12-18T01:21:37;73.85;;;33.05;;
37655;SDS011;23498;50.958;3.124;2022-12-18T01:24:03;67.80;;;29.77;;
37655;SDS011;23498;50.958;3.124;2022-12-18T01:26:29;70.63;;;30.33;;
37655;SDS011;23498;50.958;3.124;2022-12-18T01:28:55;72.97;;;31.17;;
37655;SDS011;23498;50.958;3.124;2022-12-18T01:31:23;72.03;;;31.80;;
37655;SDS011;23498;50.958;3.124;2022-12-18T01:33:49;72.05;;;29.58;;
37655;SDS011;23498;50.958;3.124;2022-12-18T01:36:20;65.07;;;29.63;;
37655;SDS011;23498;50.958;3.124;2022-12-18T01:38:46;66.70;;;29.85;;
37655;SDS011;23498;50.958;3.124;2022-12-18T01:41:13;69.63;;;29.60;;
37655;SDS011;23498;50.958;3.124;2022-12-18T01:46:18;69.15;;;30.15;;
37655;SDS011;23498;50.958;3.124;2022-12-18T01:48:46;69.88;;;29.23;;
37655;SDS011;23498;50.958;3.124;2022-12-18T01:51:12;68.10;;;29.15;;
37655;SDS011;23498;50.958;3.124;2022-12-18T01:53:39;64.63;;;30.40;;
37655;SDS011;23498;50.958;3.124;2022-12-18T01:56:05;64.93;;;28.50;;
37655;SDS011;23498;50.958;3.124;2022-12-18T01:58:52;74.25;;;31.00;;
37655;SDS011;23498;50.958;3.124;2022-12-18T02:01:20;70.57;;;30.63;;
37655;SDS011;23498;50.958;3.124;2022-12-18T02:03:47;71.93;;;29.25;;
37655;SDS011;23498;50.958;3.124;2022-12-18T02:06:15;67.75;;;29.15;;
37655;SDS011;23498;50.958;3.124;2022-12-18T02:14:23;61.90;;;29.58;;
37655;SDS011;23498;50.958;3.124;2022-12-18T02:24:40;73.80;;;31.05;;
37655;SDS011;23498;50.958;3.124;2022-12-18T02:27:09;61.15;;;28.98;;
37655;SDS011;23498;50.958;3.124;2022-12-18T02:29:50;59.15;;;27.88;;
37655;SDS011;23498;50.958;3.124;2022-12-18T02:32:22;60.00;;;27.87;;
37655;SDS011;23498;50.958;3.124;2022-12-18T02:34:50;58.25;;;27.83;;
37655;SDS011;23498;50.958;3.124;2022-12-18T02:37:17;57.30;;;26.10;;
37655;SDS011;23498;50.958;3.124;2022-12-18T02:39:44;58.22;;;27.83;;
37655;SDS011;23498;50.958;3.124;2022-12-18T02:42:11;61.33;;;26.95;;
37655;SDS011;23498;50.958;3.124;2022-12-18T02:44:41;56.25;;;27.02;;
37655;SDS011;23498;50.958;3.124;2022-12-18T02:47:09;61.35;;;27.27;;
37655;SDS011;23498;50.958;3.124;2022-12-18T02:49:39;57.08;;;26.90;;
37655;SDS011;23498;50.958;3.124;2022-12-18T02:55:00;52.80;;;26.83;;
37655;SDS011;23498;50.958;3.124;2022-12-18T02:57:34;54.28;;;25.60;;
37655;SDS011;23498;50.958;3.124;2022-12-18T03:00:08;57.42;;;27.88;;
37655;SDS011;23498;50.958;3.124;2022-12-18T03:02:41;61.30;;;28.23;;
37655;SDS011;23498;50.958;3.124;2022-12-18T03:05:13;58.97;;;27.80;;
37655;SDS011;23498;50.958;3.124;2022-12-18T03:07:50;61.35;;;28.20;;
37655;SDS011;23498;50.958;3.124;2022-12-18T03:10:18;65.43;;;30.60;;
37655;SDS011;23498;50.958;3.124;2022-12-18T03:12:51;59.17;;;28.52;;
37655;SDS011;23498;50.958;3.124;2022-12-18T03:16:00;57.03;;;27.75;;
37655;SDS011;23498;50.958;3.124;2022-12-18T03:18:08;60.20;;;27.58;;
37655;SDS011;23498;50.958;3.124;2022-12-18T03:20:37;58.78;;;28.00;;
37655;SDS011;23498;50.958;3.124;2022-12-18T03:23:06;59.55;;;27.77;;
37655;SDS011;23498;50.958;3.124;2022-12-18T03:25:33;57.63;;;25.88;;
37655;SDS011;23498;50.958;3.124;2022-12-18T03:28:00;58.17;;;25.73;;
37655;SDS011;23498;50.958;3.124;2022-12-18T03:30:28;55.65;;;26.15;;
37655;SDS011;23498;50.958;3.124;2022-12-18T03:32:58;53.00;;;25.60;;
37655;SDS011;23498;50.958;3.124;2022-12-18T03:35:27;54.13;;;24.58;;
37655;SDS011;23498;50.958;3.124;2022-12-18T03:37:54;55.38;;;25.42;;
37655;SDS011;23498;50.958;3.124;2022-12-18T03:40:21;50.97;;;24.05;;
37655;SDS011;23498;50.958;3.124;2022-12-18T03:42:56;47.50;;;22.38;;
37655;SDS011;23498;50.958;3.124;2022-12-18T03:45:27;53.13;;;23.52;;
37655;SDS011;23498;50.958;3.124;2022-12-18T03:50:44;43.35;;;21.45;;
37655;SDS011;23498;50.958;3.124;2022-12-18T03:55:56;44.40;;;21.33;;
37655;SDS011;23498;50.958;3.124;2022-12-18T03:58:24;43.65;;;20.92;;
37655;SDS011;23498;50.958;3.124;2022-12-18T04:00:51;46.17;;;22.02;;
37655;SDS011;23498;50.958;3.124;2022-12-18T04:03:18;47.45;;;22.63;;
37655;SDS011;23498;50.958;3.124;2022-12-18T04:05:46;42.20;;;22.35;;
37655;SDS011;23498;50.958;3.124;2022-12-18T04:08:12;48.90;;;23.67;;
37655;SDS011;23498;50.958;3.124;2022-12-18T04:10:39;44.92;;;23.85;;
37655;SDS011;23498;50.958;3.124;2022-12-18T04:13:05;49.92;;;22.42;;
37655;SDS011;23498;50.958;3.124;2022-12-18T04:15:33;47.47;;;22.23;;
37655;SDS011;23498;50.958;3.124;2022-12-18T04:18:00;52.03;;;22.35;;
37655;SDS011;23498;50.958;3.124;2022-12-18T04:20:26;45.30;;;23.10;;
37655;SDS011;23498;50.958;3.124;2022-12-18T04:22:52;44.28;;;22.77;;
37655;SDS011;23498;50.958;3.124;2022-12-18T04:25:18;40.25;;;20.73;;
37655;SDS011;23498;50.958;3.124;2022-12-18T04:27:44;45.05;;;21.85;;
37655;SDS011;23498;50.958;3.124;2022-12-18T04:30:10;39.97;;;19.33;;
37655;SDS011;23498;50.958;3.124;2022-12-18T04:32:36;41.55;;;20.90;;
37655;SDS011;23498;50.958;3.124;2022-12-18T04:35:03;51.53;;;21.90;;
37655;SDS011;23498;50.958;3.124;2022-12-18T04:37:31;44.55;;;20.83;;
37655;SDS011;23498;50.958;3.124;2022-12-18T04:39:57;43.20;;;20.52;;
37655;SDS011;23498;50.958;3.124;2022-12-18T04:42:23;38.33;;;19.85;;
37655;SDS011;23498;50.958;3.124;2022-12-18T04:44:49;40.40;;;19.95;;
37655;SDS011;23498;50.958;3.124;2022-12-18T04:47:15;38.95;;;20.13;;
37655;SDS011;23498;50.958;3.124;2022-12-18T04:49:41;44.13;;;20.63;;
37655;SDS011;23498;50.958;3.124;2022-12-18T04:52:07;41.03;;;20.73;;
37655;SDS011;23498;50.958;3.124;2022-12-18T04:54:33;44.88;;;21.35;;
37655;SDS011;23498;50.958;3.124;2022-12-18T04:56:59;45.58;;;23.23;;
37655;SDS011;23498;50.958;3.124;2022-12-18T04:59:25;46.65;;;22.85;;
37655;SDS011;23498;50.958;3.124;2022-12-18T05:01:51;46.95;;;22.65;;
37655;SDS011;23498;50.958;3.124;2022-12-18T05:04:17;44.55;;;21.95;;
37655;SDS011;23498;50.958;3.124;2022-12-18T05:06:43;46.58;;;21.85;;
37655;SDS011;23498;50.958;3.124;2022-12-18T05:09:09;41.75;;;22.02;;
37655;SDS011;23498;50.958;3.124;2022-12-18T05:11:35;52.72;;;23.55;;
37655;SDS011;23498;50.958;3.124;2022-12-18T05:14:01;45.55;;;22.00;;
37655;SDS011;23498;50.958;3.124;2022-12-18T05:16:27;48.22;;;23.35;;
37655;SDS011;23498;50.958;3.124;2022-12-18T05:18:52;44.70;;;22.85;;
37655;SDS011;23498;50.958;3.124;2022-12-18T05:21:18;43.17;;;22.77;;
37655;SDS011;23498;50.958;3.124;2022-12-18T05:23:44;47.45;;;24.23;;
37655;SDS011;23498;50.958;3.124;2022-12-18T05:26:13;45.83;;;22.75;;
37655;SDS011;23498;50.958;3.124;2022-12-18T05:28:40;43.88;;;22.33;;
37655;SDS011;23498;50.958;3.124;2022-12-18T05:31:07;44.30;;;22.90;;
37655;SDS011;23498;50.958;3.124;2022-12-18T05:33:33;49.88;;;23.55;;
37655;SDS011;23498;50.958;3.124;2022-12-18T05:36:00;47.08;;;22.88;;
37655;SDS011;23498;50.958;3.124;2022-12-18T05:38:27;49.30;;;24.08;;
37655;SDS011;23498;50.958;3.124;2022-12-18T05:40:53;50.33;;;25.10;;
37655;SDS011;23498;50.958;3.124;2022-12-18T05:43:20;47.33;;;23.25;;
37655;SDS011;23498;50.958;3.124;2022-12-18T05:45:49;48.63;;;24.90;;
37655;SDS011;23498;50.958;3.124;2022-12-18T05:48:15;42.10;;;23.15;;
37655;SDS011;23498;50.958;3.124;2022-12-18T05:50:42;47.03;;;24.08;;
37655;SDS011;23498;50.958;3.124;2022-12-18T05:53:10;43.00;;;21.40;;
37655;SDS011;23498;50.958;3.124;2022-12-18T05:55:37;46.15;;;22.90;;
37655;SDS011;23498;50.958;3.124;2022-12-18T05:58:03;44.53;;;22.63;;
37655;SDS011;23498;50.958;3.124;2022-12-18T06:00:30;44.15;;;22.52;;
37655;SDS011;23498;50.958;3.124;2022-12-18T06:02:57;43.53;;;21.90;;
37655;SDS011;23498;50.958;3.124;2022-12-18T06:05:23;41.75;;;22.00;;
37655;SDS011;23498;50.958;3.124;2022-12-18T06:07:49;42.88;;;21.92;;
37655;SDS011;23498;50.958;3.124;2022-12-18T06:10:15;41.78;;;22.23;;
37655;SDS011;23498;50.958;3.124;2022-12-18T06:12:41;40.17;;;20.45;;
37655;SDS011;23498;50.958;3.124;2022-12-18T06:15:08;41.50;;;21.15;;
37655;SDS011;23498;50.958;3.124;2022-12-18T06:17:35;38.70;;;19.88;;
37655;SDS011;23498;50.958;3.124;2022-12-18T06:20:01;40.50;;;20.13;;
37655;SDS011;23498;50.958;3.124;2022-12-18T06:22:27;38.40;;;19.35;;
37655;SDS011;23498;50.958;3.124;2022-12-18T06:24:53;38.58;;;19.50;;
37655;SDS011;23498;50.958;3.124;2022-12-18T06:27:19;35.83;;;18.73;;
37655;SDS011;23498;50.958;3.124;2022-12-18T06:29:45;33.17;;;18.13;;
37655;SDS011;23498;50.958;3.124;2022-12-18T06:32:11;36.80;;;17.10;;
37655;SDS011;23498;50.958;3.124;2022-12-18T06:34:37;34.92;;;17.35;;
37655;SDS011;23498;50.958;3.124;2022-12-18T06:37:03;31.38;;;17.38;;
37655;SDS011;23498;50.958;3.124;2022-12-18T06:39:29;31.83;;;16.15;;
37655;SDS011;23498;50.958;3.124;2022-12-18T06:41:55;30.45;;;16.05;;
37655;SDS011;23498;50.958;3.124;2022-12-18T06:44:21;29.05;;;15.77;;
37655;SDS011;23498;50.958;3.124;2022-12-18T06:46:47;31.50;;;15.82;;
37655;SDS011;23498;50.958;3.124;2022-12-18T06:49:13;29.17;;;14.50;;
37655;SDS011;23498;50.958;3.124;2022-12-18T06:51:41;32.17;;;16.00;;
37655;SDS011;23498;50.958;3.124;2022-12-18T06:54:07;29.27;;;14.45;;
37655;SDS011;23498;50.958;3.124;2022-12-18T06:56:33;29.27;;;15.55;;
37655;SDS011;23498;50.958;3.124;2022-12-18T06:58:59;26.98;;;13.48;;
37655;SDS011;23498;50.958;3.124;2022-12-18T07:01:25;27.17;;;14.13;;
37655;SDS011;23498;50.958;3.124;2022-12-18T07:03:52;23.35;;;12.35;;
37655;SDS011;23498;50.958;3.124;2022-12-18T07:06:19;24.17;;;12.98;;
37655;SDS011;23498;50.958;3.124;2022-12-18T07:08:46;25.98;;;13.57;;
37655;SDS011;23498;50.958;3.124;2022-12-18T07:11:12;24.65;;;13.27;;
37655;SDS011;23498;50.958;3.124;2022-12-18T07:13:38;24.45;;;12.43;;
37655;SDS011;23498;50.958;3.124;2022-12-18T07:16:08;24.67;;;12.48;;
37655;SDS011;23498;50.958;3.124;2022-12-18T07:18:34;24.40;;;12.45;;
37655;SDS011;23498;50.958;3.124;2022-12-18T07:21:06;25.67;;;12.90;;
37655;SDS011;23498;50.958;3.124;2022-12-18T07:23:33;24.77;;;12.93;;
37655;SDS011;23498;50.958;3.124;2022-12-18T07:26:03;26.80;;;13.60;;
37655;SDS011;23498;50.958;3.124;2022-12-18T07:28:29;24.58;;;13.00;;
37655;SDS011;23498;50.958;3.124;2022-12-18T07:30:55;27.60;;;13.68;;
37655;SDS011;23498;50.958;3.124;2022-12-18T07:33:21;23.00;;;13.70;;
37655;SDS011;23498;50.958;3.124;2022-12-18T07:35:47;26.48;;;13.95;;
37655;SDS011;23498;50.958;3.124;2022-12-18T07:38:13;25.15;;;12.85;;
37655;SDS011;23498;50.958;3.124;2022-12-18T07:40:38;23.83;;;13.15;;
37655;SDS011;23498;50.958;3.124;2022-12-18T07:43:04;26.83;;;13.25;;
37655;SDS011;23498;50.958;3.124;2022-12-18T07:45:30;26.42;;;13.98;;
37655;SDS011;23498;50.958;3.124;2022-12-18T07:47:56;22.48;;;11.95;;
37655;SDS011;23498;50.958;3.124;2022-12-18T07:50:22;22.60;;;12.00;;
37655;SDS011;23498;50.958;3.124;2022-12-18T07:52:48;21.92;;;12.38;;
37655;SDS011;23498;50.958;3.124;2022-12-18T07:55:14;23.13;;;11.50;;
37655;SDS011;23498;50.958;3.124;2022-12-18T07:57:40;24.83;;;12.75;;
37655;SDS011;23498;50.958;3.124;2022-12-18T08:00:07;23.20;;;11.57;;
37655;SDS011;23498;50.958;3.124;2022-12-18T08:02:33;25.85;;;12.95;;
37655;SDS011;23498;50.958;3.124;2022-12-18T08:04:59;26.00;;;13.20;;
37655;SDS011;23498;50.958;3.124;2022-12-18T08:07:25;23.48;;;12.13;;
37655;SDS011;23498;50.958;3.124;2022-12-18T08:09:51;26.55;;;12.73;;
37655;SDS011;23498;50.958;3.124;2022-12-18T08:12:17;26.98;;;12.57;;
37655;SDS011;23498;50.958;3.124;2022-12-18T08:14:43;28.63;;;14.10;;
37655;SDS011;23498;50.958;3.124;2022-12-18T08:17:09;23.10;;;13.35;;
37655;SDS011;23498;50.958;3.124;2022-12-18T08:19:35;26.13;;;13.70;;
37655;SDS011;23498;50.958;3.124;2022-12-18T08:22:01;26.08;;;13.93;;
37655;SDS011;23498;50.958;3.124;2022-12-18T08:24:27;26.00;;;13.65;;
37655;SDS011;23498;50.958;3.124;2022-12-18T08:26:53;32.70;;;14.50;;
37655;SDS011;23498;50.958;3.124;2022-12-18T08:29:19;27.92;;;14.52;;
37655;SDS011;23498;50.958;3.124;2022-12-18T08:31:45;28.30;;;13.60;;
37655;SDS011;23498;50.958;3.124;2022-12-18T08:34:14;24.60;;;13.82;;
37655;SDS011;23498;50.958;3.124;2022-12-18T08:36:40;27.20;;;14.10;;
37655;SDS011;23498;50.958;3.124;2022-12-18T08:39:06;26.35;;;14.20;;
37655;SDS011;23498;50.958;3.124;2022-12-18T08:41:32;31.55;;;15.52;;
37655;SDS011;23498;50.958;3.124;2022-12-18T08:43:58;26.95;;;14.85;;
37655;SDS011;23498;50.958;3.124;2022-12-18T08:46:43;28.67;;;13.60;;
37655;SDS011;23498;50.958;3.124;2022-12-18T08:49:10;24.73;;;13.32;;
37655;SDS011;23498;50.958;3.124;2022-12-18T08:51:36;26.05;;;14.65;;
37655;SDS011;23498;50.958;3.124;2022-12-18T08:54:02;33.35;;;17.60;;
37655;SDS011;23498;50.958;3.124;2022-12-18T08:56:29;37.67;;;24.95;;
37655;SDS011;23498;50.958;3.124;2022-12-18T08:58:55;26.50;;;13.63;;
37655;SDS011;23498;50.958;3.124;2022-12-18T09:01:21;28.52;;;14.35;;
37655;SDS011;23498;50.958;3.124;2022-12-18T09:03:48;23.42;;;13.52;;
37655;SDS011;23498;50.958;3.124;2022-12-18T09:06:15;23.02;;;13.60;;
37655;SDS011;23498;50.958;3.124;2022-12-18T09:08:41;27.95;;;13.70;;
37655;SDS011;23498;50.958;3.124;2022-12-18T09:11:41;24.08;;;13.45;;
37655;SDS011;23498;50.958;3.124;2022-12-18T09:14:00;24.52;;;14.32;;
37655;SDS011;23498;50.958;3.124;2022-12-18T09:16:26;26.60;;;13.70;;
37655;SDS011;23498;50.958;3.124;2022-12-18T09:18:53;26.83;;;14.10;;
37655;SDS011;23498;50.958;3.124;2022-12-18T09:21:24;24.40;;;13.18;;
37655;SDS011;23498;50.958;3.124;2022-12-18T09:23:51;25.92;;;13.48;;
37655;SDS011;23498;50.958;3.124;2022-12-18T09:26:17;26.30;;;13.35;;
37655;SDS011;23498;50.958;3.124;2022-12-18T09:28:43;24.42;;;13.50;;
37655;SDS011;23498;50.958;3.124;2022-12-18T09:31:10;26.50;;;13.93;;
37655;SDS011;23498;50.958;3.124;2022-12-18T09:33:39;26.67;;;13.98;;
37655;SDS011;23498;50.958;3.124;2022-12-18T09:36:06;24.60;;;14.80;;
37655;SDS011;23498;50.958;3.124;2022-12-18T09:38:32;27.67;;;14.93;;
37655;SDS011;23498;50.958;3.124;2022-12-18T09:40:59;27.42;;;14.30;;
37655;SDS011;23498;50.958;3.124;2022-12-18T09:43:28;24.30;;;14.15;;
37655;SDS011;23498;50.958;3.124;2022-12-18T09:45:57;26.23;;;14.43;;
37655;SDS011;23498;50.958;3.124;2022-12-18T09:50:50;28.52;;;15.27;;
37655;SDS011;23498;50.958;3.124;2022-12-18T09:53:19;26.15;;;15.60;;
37655;SDS011;23498;50.958;3.124;2022-12-18T09:55:46;31.67;;;15.23;;
37655;SDS011;23498;50.958;3.124;2022-12-18T10:00:43;26.80;;;16.00;;
37655;SDS011;23498;50.958;3.124;2022-12-18T10:03:10;30.52;;;16.10;;
37655;SDS011;23498;50.958;3.124;2022-12-18T10:08:06;31.58;;;16.42;;
37655;SDS011;23498;50.958;3.124;2022-12-18T10:21:10;28.45;;;15.15;;
37655;SDS011;23498;50.958;3.124;2022-12-18T10:26:09;27.40;;;15.80;;
37655;SDS011;23498;50.958;3.124;2022-12-18T10:28:37;32.22;;;16.95;;
37655;SDS011;23498;50.958;3.124;2022-12-18T10:31:22;33.97;;;16.48;;
37655;SDS011;23498;50.958;3.124;2022-12-18T10:33:49;34.38;;;17.27;;
37655;SDS011;23498;50.958;3.124;2022-12-18T10:36:32;32.15;;;17.02;;
37655;SDS011;23498;50.958;3.124;2022-12-18T10:39:20;40.42;;;19.55;;
37655;SDS011;23498;50.958;3.124;2022-12-18T10:42:09;36.97;;;19.38;;
37655;SDS011;23498;50.958;3.124;2022-12-18T10:44:35;38.78;;;19.52;;
37655;SDS011;23498;50.958;3.124;2022-12-18T10:47:05;34.60;;;18.65;;
37655;SDS011;23498;50.958;3.124;2022-12-18T10:49:32;36.80;;;20.50;;
37655;SDS011;23498;50.958;3.124;2022-12-18T10:52:07;39.03;;;20.90;;
37655;SDS011;23498;50.958;3.124;2022-12-18T10:54:33;37.30;;;19.63;;
37655;SDS011;23498;50.958;3.124;2022-12-18T11:02:46;34.20;;;19.25;;
37655;SDS011;23498;50.958;3.124;2022-12-18T11:05:23;37.40;;;20.75;;
37655;SDS011;23498;50.958;3.124;2022-12-18T11:07:52;37.13;;;20.27;;
37655;SDS011;23498;50.958;3.124;2022-12-18T11:10:31;36.25;;;19.60;;
37655;SDS011;23498;50.958;3.124;2022-12-18T11:15:56;38.17;;;19.85;;
37655;SDS011;23498;50.958;3.124;2022-12-18T11:21:05;35.28;;;20.27;;
37655;SDS011;23498;50.958;3.124;2022-12-18T11:23:32;39.72;;;20.65;;
37655;SDS011;23498;50.958;3.124;2022-12-18T11:25:59;38.97;;;21.38;;
37655;SDS011;23498;50.958;3.124;2022-12-18T11:28:37;44.10;;;22.17;;
37655;SDS011;23498;50.958;3.124;2022-12-18T11:33:56;35.90;;;18.90;;
37655;SDS011;23498;50.958;3.124;2022-12-18T11:36:23;39.28;;;20.80;;
37655;SDS011;23498;50.958;3.124;2022-12-18T11:38:51;38.35;;;20.65;;
37655;SDS011;23498;50.958;3.124;2022-12-18T11:41:28;38.92;;;21.08;;
37655;SDS011;23498;50.958;3.124;2022-12-18T11:44:14;40.25;;;20.77;;
37655;SDS011;23498;50.958;3.124;2022-12-18T11:46:49;43.20;;;22.42;;
37655;SDS011;23498;50.958;3.124;2022-12-18T11:49:24;40.67;;;21.52;;
37655;SDS011;23498;50.958;3.124;2022-12-18T11:52:34;41.97;;;22.65;;
37655;SDS011;23498;50.958;3.124;2022-12-18T11:54:42;41.80;;;20.83;;
37655;SDS011;23498;50.958;3.124;2022-12-18T12:00:04;42.90;;;21.92;;
37655;SDS011;23498;50.958;3.124;2022-12-18T12:18:23;42.10;;;22.40;;
37655;SDS011;23498;50.958;3.124;2022-12-18T12:20:56;41.50;;;21.30;;
37655;SDS011;23498;50.958;3.124;2022-12-18T12:23:35;45.38;;;22.88;;
37655;SDS011;23498;50.958;3.124;2022-12-18T12:26:12;40.88;;;21.60;;
37655;SDS011;23498;50.958;3.124;2022-12-18T12:33:51;46.88;;;21.08;;
37655;SDS011;23498;50.958;3.124;2022-12-18T12:39:08;45.15;;;22.90;;
37655;SDS011;23498;50.958;3.124;2022-12-18T12:41:36;44.28;;;24.35;;
37655;SDS011;23498;50.958;3.124;2022-12-18T12:44:28;44.45;;;24.10;;
37655;SDS011;23498;50.958;3.124;2022-12-18T12:46:57;43.80;;;23.23;;
37655;SDS011;23498;50.958;3.124;2022-12-18T12:49:25;41.78;;;22.23;;
37655;SDS011;23498;50.958;3.124;2022-12-18T12:52:05;46.47;;;23.75;;
37655;SDS011;23498;50.958;3.124;2022-12-18T12:54:32;39.97;;;21.50;;
37655;SDS011;23498;50.958;3.124;2022-12-18T12:57:01;47.88;;;24.38;;
37655;SDS011;23498;50.958;3.124;2022-12-18T12:59:36;43.20;;;22.38;;
37655;SDS011;23498;50.958;3.124;2022-12-18T13:02:10;45.88;;;22.52;;
37655;SDS011;23498;50.958;3.124;2022-12-18T13:04:58;46.17;;;24.10;;
37655;SDS011;23498;50.958;3.124;2022-12-18T13:07:29;46.17;;;23.10;;
37655;SDS011;23498;50.958;3.124;2022-12-18T13:13:18;41.25;;;21.77;;
37655;SDS011;23498;50.958;3.124;2022-12-18T13:21:44;42.00;;;21.77;;
37655;SDS011;23498;50.958;3.124;2022-12-18T13:24:23;42.53;;;22.45;;
37655;SDS011;23498;50.958;3.124;2022-12-18T13:26:50;47.53;;;22.85;;
37655;SDS011;23498;50.958;3.124;2022-12-18T13:32:10;41.25;;;22.30;;
37655;SDS011;23498;50.958;3.124;2022-12-18T13:34:45;44.08;;;21.85;;
37655;SDS011;23498;50.958;3.124;2022-12-18T13:42:31;44.25;;;21.70;;
37655;SDS011;23498;50.958;3.124;2022-12-18T13:45:35;42.67;;;21.90;;
37655;SDS011;23498;50.958;3.124;2022-12-18T13:48:03;44.15;;;22.20;;
37655;SDS011;23498;50.958;3.124;2022-12-18T13:50:30;40.28;;;21.15;;
37655;SDS011;23498;50.958;3.124;2022-12-18T13:52:56;44.35;;;21.83;;
37655;SDS011;23498;50.958;3.124;2022-12-18T13:55:23;42.65;;;21.48;;
37655;SDS011;23498;50.958;3.124;2022-12-18T13:57:49;43.95;;;22.33;;
37655;SDS011;23498;50.958;3.124;2022-12-18T14:02:44;41.78;;;20.55;;
37655;SDS011;23498;50.958;3.124;2022-12-18T14:05:29;45.08;;;22.00;;
37655;SDS011;23498;50.958;3.124;2022-12-18T14:07:59;43.20;;;20.33;;
37655;SDS011;23498;50.958;3.124;2022-12-18T14:10:26;42.92;;;20.67;;
37655;SDS011;23498;50.958;3.124;2022-12-18T14:12:52;43.50;;;21.35;;
37655;SDS011;23498;50.958;3.124;2022-12-18T14:20:30;46.47;;;22.42;;
37655;SDS011;23498;50.958;3.124;2022-12-18T14:22:57;43.88;;;23.45;;
37655;SDS011;23498;50.958;3.124;2022-12-18T14:25:25;38.78;;;19.75;;
37655;SDS011;23498;50.958;3.124;2022-12-18T14:27:53;51.00;;;24.48;;
37655;SDS011;23498;50.958;3.124;2022-12-18T14:35:30;45.53;;;22.38;;
37655;SDS011;23498;50.958;3.124;2022-12-18T14:40:56;44.67;;;21.63;;
37655;SDS011;23498;50.958;3.124;2022-12-18T14:43:22;48.58;;;23.23;;
37655;SDS011;23498;50.958;3.124;2022-12-18T14:45:48;41.13;;;21.10;;
37655;SDS011;23498;50.958;3.124;2022-12-18T14:48:25;44.25;;;22.90;;
37655;SDS011;23498;50.958;3.124;2022-12-18T14:51:24;42.63;;;21.08;;
37655;SDS011;23498;50.958;3.124;2022-12-18T14:53:57;45.25;;;21.92;;
37655;SDS011;23498;50.958;3.124;2022-12-18T15:01:24;45.55;;;22.95;;
37655;SDS011;23498;50.958;3.124;2022-12-18T15:03:53;41.10;;;22.25;;
37655;SDS011;23498;50.958;3.124;2022-12-18T15:06:30;44.58;;;22.27;;
37655;SDS011;23498;50.958;3.124;2022-12-18T15:08:57;39.65;;;19.90;;
37655;SDS011;23498;50.958;3.124;2022-12-18T15:13:52;47.80;;;23.48;;
37655;SDS011;23498;50.958;3.124;2022-12-18T15:16:18;42.60;;;20.60;;
37655;SDS011;23498;50.958;3.124;2022-12-18T15:18:44;43.75;;;21.75;;
37655;SDS011;23498;50.958;3.124;2022-12-18T15:21:11;48.22;;;22.50;;
37655;SDS011;23498;50.958;3.124;2022-12-18T15:23:48;45.97;;;21.13;;
37655;SDS011;23498;50.958;3.124;2022-12-18T15:26:15;47.40;;;22.55;;
37655;SDS011;23498;50.958;3.124;2022-12-18T15:33:40;44.03;;;21.05;;
37655;SDS011;23498;50.958;3.124;2022-12-18T15:36:11;47.65;;;21.13;;
37655;SDS011;23498;50.958;3.124;2022-12-18T15:38:37;43.47;;;21.30;;
37655;SDS011;23498;50.958;3.124;2022-12-18T15:41:03;46.42;;;22.42;;
37655;SDS011;23498;50.958;3.124;2022-12-18T15:43:29;39.72;;;18.92;;
37655;SDS011;23498;50.958;3.124;2022-12-18T15:45:58;43.00;;;20.70;;
37655;SDS011;23498;50.958;3.124;2022-12-18T15:48:24;46.92;;;22.15;;
37655;SDS011;23498;50.958;3.124;2022-12-18T15:50:51;48.28;;;22.02;;
37655;SDS011;23498;50.958;3.124;2022-12-18T15:53:18;44.85;;;20.48;;
37655;SDS011;23498;50.958;3.124;2022-12-18T15:55:44;44.67;;;21.25;;
37655;SDS011;23498;50.958;3.124;2022-12-18T15:58:29;53.20;;;23.88;;
37655;SDS011;23498;50.958;3.124;2022-12-18T16:00:55;46.33;;;21.35;;
37655;SDS011;23498;50.958;3.124;2022-12-18T16:03:22;49.47;;;23.27;;
37655;SDS011;23498;50.958;3.124;2022-12-18T16:05:48;45.92;;;21.23;;
37655;SDS011;23498;50.958;3.124;2022-12-18T16:08:14;45.47;;;22.63;;
37655;SDS011;23498;50.958;3.124;2022-12-18T16:10:43;46.47;;;22.00;;
37655;SDS011;23498;50.958;3.124;2022-12-18T16:13:15;44.83;;;21.75;;
37655;SDS011;23498;50.958;3.124;2022-12-18T16:15:42;44.10;;;21.80;;
37655;SDS011;23498;50.958;3.124;2022-12-18T16:18:09;47.60;;;21.55;;
37655;SDS011;23498;50.958;3.124;2022-12-18T16:20:55;48.15;;;22.98;;
37655;SDS011;23498;50.958;3.124;2022-12-18T16:23:33;46.80;;;21.42;;
37655;SDS011;23498;50.958;3.124;2022-12-18T16:26:02;50.92;;;22.55;;
37655;SDS011;23498;50.958;3.124;2022-12-18T16:28:31;54.20;;;22.73;;
37655;SDS011;23498;50.958;3.124;2022-12-18T16:31:04;48.30;;;21.98;;
37655;SDS011;23498;50.958;3.124;2022-12-18T16:33:31;50.20;;;23.83;;
37655;SDS011;23498;50.958;3.124;2022-12-18T16:36:06;46.03;;;21.83;;
37655;SDS011;23498;50.958;3.124;2022-12-18T16:38:59;46.88;;;22.30;;
37655;SDS011;23498;50.958;3.124;2022-12-18T16:41:26;46.55;;;21.33;;